sensor_id;sensor_type;location;lat;lon;timestamp;P1;durP1;ratioP1;P2;durP2;ratioP2
33644;SDS011;19986;48.190;16.366;2023-03-30T00:00:54;48.38;;;45.38;;
33644;SDS011;19986;48.190;16.366;2023-03-30T00:03:20;52.70;;;49.70;;
33644;SDS011;19986;48.190;16.366;2023-03-30T00:05:47;51.20;;;48.20;;
33644;SDS011;19986;48.190;16.366;2023-03-30T00:08:15;48.38;;;45.50;;
33644;SDS011;19986;48.190;16.366;2023-03-30T00:10:45;51.65;;;48.65;;
33644;SDS011;19986;48.190;16.366;2023-03-30T00:13:10;50.47;;;47.28;;
33644;SDS011;19986;48.190;16.366;2023-03-30T00:15:37;50.42;;;47.40;;
33644;SDS011;19986;48.190;16.366;2023-03-30T00:18:03;51.75;;;48.58;;
33644;SDS011;19986;48.190;16.366;2023-03-30T00:20:29;51.25;;;48.33;;
33644;SDS011;19986;48.190;16.366;2023-03-30T00:23:08;50.80;;;47.88;;
33644;SDS011;19986;48.190;16.366;2023-03-30T00:25:36;51.85;;;48.22;;
33644;SDS011;19986;48.190;16.366;2023-03-30T00:28:02;50.47;;;47.53;;
33644;SDS011;19986;48.190;16.366;2023-03-30T00:30:28;48.70;;;45.95;;
33644;SDS011;19986;48.190;16.366;2023-03-30T00:32:54;50.15;;;47.22;;
33644;SDS011;19986;48.190;16.366;2023-03-30T00:35:20;52.38;;;49.38;;
33644;SDS011;19986;48.190;16.366;2023-03-30T00:37:46;53.40;;;50.33;;
33644;SDS011;19986;48.190;16.366;2023-03-30T00:40:15;49.97;;;46.78;;
33644;SDS011;19986;48.190;16.366;2023-03-30T00:42:43;49.97;;;47.00;;
33644;SDS011;19986;48.190;16.366;2023-03-30T00:50:41;54.60;;;51.53;;
33644;SDS011;19986;48.190;16.366;2023-03-30T00:53:15;50.40;;;47.40;;
33644;SDS011;19986;48.190;16.366;2023-03-30T00:55:57;49.90;;;46.92;;
33644;SDS011;19986;48.190;16.366;2023-03-30T00:58:25;53.85;;;50.55;;
33644;SDS011;19986;48.190;16.366;2023-03-30T01:00:57;51.85;;;48.50;;
33644;SDS011;19986;48.190;16.366;2023-03-30T01:03:29;52.40;;;49.25;;
33644;SDS011;19986;48.190;16.366;2023-03-30T01:05:57;49.63;;;46.58;;
33644;SDS011;19986;48.190;16.366;2023-03-30T01:08:26;51.47;;;48.38;;
33644;SDS011;19986;48.190;16.366;2023-03-30T01:11:03;51.28;;;48.28;;
33644;SDS011;19986;48.190;16.366;2023-03-30T01:13:32;51.28;;;48.22;;
33644;SDS011;19986;48.190;16.366;2023-03-30T01:18:54;50.70;;;47.70;;
33644;SDS011;19986;48.190;16.366;2023-03-30T01:33:00;50.28;;;47.40;;
33644;SDS011;19986;48.190;16.366;2023-03-30T01:38:56;51.28;;;48.10;;
33644;SDS011;19986;48.190;16.366;2023-03-30T01:47:18;47.97;;;45.08;;
33644;SDS011;19986;48.190;16.366;2023-03-30T01:50:04;49.50;;;46.58;;
33644;SDS011;19986;48.190;16.366;2023-03-30T01:55:16;49.70;;;46.58;;
33644;SDS011;19986;48.190;16.366;2023-03-30T01:57:52;51.83;;;48.83;;
33644;SDS011;19986;48.190;16.366;2023-03-30T02:00:40;51.97;;;48.97;;
33644;SDS011;19986;48.190;16.366;2023-03-30T02:03:14;53.03;;;49.92;;
33644;SDS011;19986;48.190;16.366;2023-03-30T02:05:48;48.35;;;45.55;;
33644;SDS011;19986;48.190;16.366;2023-03-30T02:08:18;53.08;;;49.78;;
33644;SDS011;19986;48.190;16.366;2023-03-30T02:10:48;53.67;;;50.28;;
33644;SDS011;19986;48.190;16.366;2023-03-30T02:13:17;53.47;;;50.22;;
33644;SDS011;19986;48.190;16.366;2023-03-30T02:15:46;51.72;;;48.63;;
33644;SDS011;19986;48.190;16.366;2023-03-30T02:18:16;52.22;;;49.13;;
33644;SDS011;19986;48.190;16.366;2023-03-30T02:20:44;50.80;;;47.90;;
33644;SDS011;19986;48.190;16.366;2023-03-30T02:23:12;50.50;;;47.33;;
33644;SDS011;19986;48.190;16.366;2023-03-30T02:25:39;49.03;;;46.20;;
33644;SDS011;19986;48.190;16.366;2023-03-30T02:28:07;51.35;;;47.95;;
33644;SDS011;19986;48.190;16.366;2023-03-30T02:30:35;49.05;;;46.05;;
33644;SDS011;19986;48.190;16.366;2023-03-30T02:33:08;49.08;;;45.97;;
33644;SDS011;19986;48.190;16.366;2023-03-30T02:38:46;52.17;;;49.00;;
33644;SDS011;19986;48.190;16.366;2023-03-30T02:47:11;51.08;;;47.75;;
33644;SDS011;19986;48.190;16.366;2023-03-30T02:50:15;52.63;;;49.47;;
33644;SDS011;19986;48.190;16.366;2023-03-30T03:04:04;52.25;;;49.25;;
33644;SDS011;19986;48.190;16.366;2023-03-30T03:06:31;54.13;;;50.92;;
33644;SDS011;19986;48.190;16.366;2023-03-30T03:08:57;54.13;;;50.95;;
33644;SDS011;19986;48.190;16.366;2023-03-30T03:11:24;54.15;;;50.85;;
33644;SDS011;19986;48.190;16.366;2023-03-30T03:13:50;53.55;;;50.38;;
33644;SDS011;19986;48.190;16.366;2023-03-30T03:16:16;50.30;;;47.33;;
33644;SDS011;19986;48.190;16.366;2023-03-30T03:18:43;52.03;;;48.92;;
33644;SDS011;19986;48.190;16.366;2023-03-30T03:21:10;53.25;;;49.97;;
33644;SDS011;19986;48.190;16.366;2023-03-30T03:23:38;54.13;;;51.03;;
33644;SDS011;19986;48.190;16.366;2023-03-30T03:26:04;56.42;;;53.03;;
33644;SDS011;19986;48.190;16.366;2023-03-30T03:28:31;51.28;;;48.17;;
33644;SDS011;19986;48.190;16.366;2023-03-30T03:30:57;51.63;;;48.42;;
33644;SDS011;19986;48.190;16.366;2023-03-30T03:33:24;54.10;;;50.80;;
33644;SDS011;19986;48.190;16.366;2023-03-30T03:35:51;54.42;;;51.03;;
33644;SDS011;19986;48.190;16.366;2023-03-30T03:38:24;52.80;;;49.47;;
33644;SDS011;19986;48.190;16.366;2023-03-30T03:40:51;51.53;;;48.22;;
33644;SDS011;19986;48.190;16.366;2023-03-30T03:43:18;53.45;;;50.17;;
33644;SDS011;19986;48.190;16.366;2023-03-30T03:45:45;56.15;;;52.92;;
33644;SDS011;19986;48.190;16.366;2023-03-30T03:48:13;52.00;;;48.92;;
33644;SDS011;19986;48.190;16.366;2023-03-30T03:50:40;52.78;;;49.42;;
33644;SDS011;19986;48.190;16.366;2023-03-30T03:53:07;51.20;;;47.85;;
33644;SDS011;19986;48.190;16.366;2023-03-30T03:55:34;50.83;;;47.85;;
33644;SDS011;19986;48.190;16.366;2023-03-30T03:58:00;50.97;;;47.95;;
33644;SDS011;19986;48.190;16.366;2023-03-30T04:00:27;53.28;;;50.28;;
33644;SDS011;19986;48.190;16.366;2023-03-30T04:02:53;54.22;;;50.95;;
33644;SDS011;19986;48.190;16.366;2023-03-30T04:05:19;49.65;;;46.67;;
33644;SDS011;19986;48.190;16.366;2023-03-30T04:07:45;51.35;;;48.05;;
33644;SDS011;19986;48.190;16.366;2023-03-30T04:10:11;53.03;;;49.78;;
33644;SDS011;19986;48.190;16.366;2023-03-30T04:12:38;52.80;;;49.70;;
33644;SDS011;19986;48.190;16.366;2023-03-30T04:15:04;51.38;;;48.20;;
33644;SDS011;19986;48.190;16.366;2023-03-30T04:17:31;51.08;;;48.15;;
33644;SDS011;19986;48.190;16.366;2023-03-30T04:19:58;50.30;;;47.58;;
33644;SDS011;19986;48.190;16.366;2023-03-30T04:22:29;50.45;;;47.75;;
33644;SDS011;19986;48.190;16.366;2023-03-30T04:25:00;52.83;;;49.80;;
33644;SDS011;19986;48.190;16.366;2023-03-30T04:27:28;49.17;;;46.00;;
33644;SDS011;19986;48.190;16.366;2023-03-30T04:29:54;49.55;;;46.67;;
33644;SDS011;19986;48.190;16.366;2023-03-30T04:32:22;50.35;;;47.35;;
33644;SDS011;19986;48.190;16.366;2023-03-30T04:34:49;48.13;;;45.30;;
33644;SDS011;19986;48.190;16.366;2023-03-30T04:37:22;51.30;;;48.30;;
33644;SDS011;19986;48.190;16.366;2023-03-30T04:39:58;51.85;;;48.80;;
33644;SDS011;19986;48.190;16.366;2023-03-30T04:42:25;49.80;;;46.90;;
33644;SDS011;19986;48.190;16.366;2023-03-30T04:44:57;48.88;;;45.88;;
33644;SDS011;19986;48.190;16.366;2023-03-30T04:47:25;52.97;;;49.88;;
33644;SDS011;19986;48.190;16.366;2023-03-30T04:49:52;52.22;;;49.00;;
33644;SDS011;19986;48.190;16.366;2023-03-30T04:52:18;50.78;;;47.67;;
33644;SDS011;19986;48.190;16.366;2023-03-30T04:54:45;49.70;;;46.65;;
33644;SDS011;19986;48.190;16.366;2023-03-30T04:57:11;49.90;;;46.85;;
33644;SDS011;19986;48.190;16.366;2023-03-30T04:59:41;54.33;;;51.08;;
33644;SDS011;19986;48.190;16.366;2023-03-30T05:02:07;50.88;;;47.88;;
33644;SDS011;19986;48.190;16.366;2023-03-30T05:04:34;52.67;;;49.60;;
33644;SDS011;19986;48.190;16.366;2023-03-30T05:07:01;52.00;;;48.90;;
33644;SDS011;19986;48.190;16.366;2023-03-30T05:09:27;53.15;;;49.83;;
33644;SDS011;19986;48.190;16.366;2023-03-30T05:11:53;50.15;;;47.17;;
33644;SDS011;19986;48.190;16.366;2023-03-30T05:14:19;52.85;;;49.58;;
33644;SDS011;19986;48.190;16.366;2023-03-30T05:16:45;50.33;;;47.15;;
33644;SDS011;19986;48.190;16.366;2023-03-30T05:19:11;48.50;;;45.70;;
33644;SDS011;19986;48.190;16.366;2023-03-30T05:21:37;51.75;;;48.53;;
33644;SDS011;19986;48.190;16.366;2023-03-30T05:24:03;53.95;;;50.60;;
33644;SDS011;19986;48.190;16.366;2023-03-30T05:26:29;52.25;;;49.15;;
33644;SDS011;19986;48.190;16.366;2023-03-30T05:28:55;49.85;;;46.85;;
33644;SDS011;19986;48.190;16.366;2023-03-30T05:31:21;52.55;;;49.47;;
33644;SDS011;19986;48.190;16.366;2023-03-30T05:33:47;50.70;;;47.70;;
33644;SDS011;19986;48.190;16.366;2023-03-30T05:36:13;53.28;;;50.13;;
33644;SDS011;19986;48.190;16.366;2023-03-30T05:38:39;49.00;;;45.92;;
33644;SDS011;19986;48.190;16.366;2023-03-30T05:41:05;52.20;;;49.17;;
33644;SDS011;19986;48.190;16.366;2023-03-30T05:43:32;52.03;;;48.90;;
33644;SDS011;19986;48.190;16.366;2023-03-30T05:45:58;50.05;;;47.05;;
33644;SDS011;19986;48.190;16.366;2023-03-30T05:48:25;51.33;;;48.03;;
33644;SDS011;19986;48.190;16.366;2023-03-30T05:50:51;52.40;;;49.30;;
33644;SDS011;19986;48.190;16.366;2023-03-30T05:53:17;51.28;;;47.95;;
33644;SDS011;19986;48.190;16.366;2023-03-30T05:55:43;50.65;;;47.58;;
33644;SDS011;19986;48.190;16.366;2023-03-30T05:58:11;51.25;;;48.28;;
33644;SDS011;19986;48.190;16.366;2023-03-30T06:00:38;51.95;;;48.88;;
33644;SDS011;19986;48.190;16.366;2023-03-30T06:03:06;52.65;;;49.22;;
33644;SDS011;19986;48.190;16.366;2023-03-30T06:05:34;53.90;;;50.55;;
33644;SDS011;19986;48.190;16.366;2023-03-30T06:08:04;50.25;;;47.15;;
33644;SDS011;19986;48.190;16.366;2023-03-30T06:10:32;50.28;;;47.30;;
33644;SDS011;19986;48.190;16.366;2023-03-30T06:12:58;52.15;;;49.15;;
33644;SDS011;19986;48.190;16.366;2023-03-30T06:15:25;50.45;;;47.30;;
33644;SDS011;19986;48.190;16.366;2023-03-30T06:17:52;49.95;;;46.83;;
33644;SDS011;19986;48.190;16.366;2023-03-30T06:20:18;52.17;;;49.08;;
33644;SDS011;19986;48.190;16.366;2023-03-30T06:22:46;49.88;;;46.75;;
33644;SDS011;19986;48.190;16.366;2023-03-30T06:25:12;49.80;;;47.00;;
33644;SDS011;19986;48.190;16.366;2023-03-30T06:27:39;51.28;;;48.28;;
33644;SDS011;19986;48.190;16.366;2023-03-30T06:30:06;48.40;;;45.30;;
33644;SDS011;19986;48.190;16.366;2023-03-30T06:32:35;50.38;;;47.33;;
33644;SDS011;19986;48.190;16.366;2023-03-30T06:35:03;49.70;;;46.70;;
33644;SDS011;19986;48.190;16.366;2023-03-30T06:37:32;49.67;;;46.78;;
33644;SDS011;19986;48.190;16.366;2023-03-30T06:40:01;48.72;;;45.83;;
33644;SDS011;19986;48.190;16.366;2023-03-30T06:42:32;48.92;;;46.10;;
33644;SDS011;19986;48.190;16.366;2023-03-30T06:44:58;51.40;;;48.40;;
33644;SDS011;19986;48.190;16.366;2023-03-30T06:47:24;47.42;;;44.42;;
33644;SDS011;19986;48.190;16.366;2023-03-30T06:49:50;50.50;;;47.40;;
33644;SDS011;19986;48.190;16.366;2023-03-30T06:52:16;50.83;;;47.85;;
33644;SDS011;19986;48.190;16.366;2023-03-30T06:54:41;50.78;;;47.88;;
33644;SDS011;19986;48.190;16.366;2023-03-30T06:57:07;50.40;;;47.30;;
33644;SDS011;19986;48.190;16.366;2023-03-30T06:59:33;49.50;;;46.53;;
33644;SDS011;19986;48.190;16.366;2023-03-30T07:01:59;51.95;;;48.85;;
33644;SDS011;19986;48.190;16.366;2023-03-30T07:04:25;49.72;;;46.80;;
33644;SDS011;19986;48.190;16.366;2023-03-30T07:06:51;52.00;;;48.78;;
33644;SDS011;19986;48.190;16.366;2023-03-30T07:09:21;52.38;;;49.25;;
33644;SDS011;19986;48.190;16.366;2023-03-30T07:11:49;49.90;;;46.80;;
33644;SDS011;19986;48.190;16.366;2023-03-30T07:14:15;51.75;;;48.50;;
33644;SDS011;19986;48.190;16.366;2023-03-30T07:16:41;52.42;;;48.50;;
33644;SDS011;19986;48.190;16.366;2023-03-30T07:19:07;52.05;;;48.80;;
33644;SDS011;19986;48.190;16.366;2023-03-30T07:21:33;51.28;;;48.08;;
33644;SDS011;19986;48.190;16.366;2023-03-30T07:23:58;49.33;;;46.20;;
33644;SDS011;19986;48.190;16.366;2023-03-30T07:26:28;50.60;;;47.20;;
33644;SDS011;19986;48.190;16.366;2023-03-30T07:28:55;50.25;;;47.15;;
33644;SDS011;19986;48.190;16.366;2023-03-30T07:31:21;50.30;;;47.05;;
33644;SDS011;19986;48.190;16.366;2023-03-30T07:33:48;50.63;;;47.38;;
33644;SDS011;19986;48.190;16.366;2023-03-30T07:36:15;50.22;;;47.15;;
33644;SDS011;19986;48.190;16.366;2023-03-30T07:38:41;47.97;;;44.72;;
33644;SDS011;19986;48.190;16.366;2023-03-30T07:41:08;48.22;;;45.08;;
33644;SDS011;19986;48.190;16.366;2023-03-30T07:43:35;50.25;;;46.08;;
33644;SDS011;19986;48.190;16.366;2023-03-30T07:46:02;48.88;;;45.70;;
33644;SDS011;19986;48.190;16.366;2023-03-30T07:48:34;48.20;;;45.17;;
33644;SDS011;19986;48.190;16.366;2023-03-30T07:51:01;48.28;;;44.83;;
33644;SDS011;19986;48.190;16.366;2023-03-30T07:53:34;47.58;;;44.50;;
33644;SDS011;19986;48.190;16.366;2023-03-30T07:56:01;47.30;;;44.03;;
33644;SDS011;19986;48.190;16.366;2023-03-30T07:58:27;47.65;;;44.75;;
33644;SDS011;19986;48.190;16.366;2023-03-30T08:00:53;47.47;;;44.53;;
33644;SDS011;19986;48.190;16.366;2023-03-30T08:03:20;45.15;;;42.35;;
33644;SDS011;19986;48.190;16.366;2023-03-30T08:05:56;49.42;;;45.40;;
33644;SDS011;19986;48.190;16.366;2023-03-30T08:08:29;47.17;;;44.30;;
33644;SDS011;19986;48.190;16.366;2023-03-30T08:10:56;52.17;;;47.45;;
33644;SDS011;19986;48.190;16.366;2023-03-30T08:13:23;46.00;;;42.95;;
33644;SDS011;19986;48.190;16.366;2023-03-30T08:15:50;45.13;;;42.30;;
33644;SDS011;19986;48.190;16.366;2023-03-30T08:18:18;48.25;;;45.05;;
33644;SDS011;19986;48.190;16.366;2023-03-30T08:20:44;46.75;;;43.78;;
33644;SDS011;19986;48.190;16.366;2023-03-30T08:23:15;46.85;;;43.50;;
33644;SDS011;19986;48.190;16.366;2023-03-30T08:25:41;46.22;;;43.22;;
33644;SDS011;19986;48.190;16.366;2023-03-30T08:28:07;49.38;;;45.55;;
33644;SDS011;19986;48.190;16.366;2023-03-30T08:30:34;48.88;;;45.53;;
33644;SDS011;19986;48.190;16.366;2023-03-30T08:35:46;49.83;;;46.30;;
33644;SDS011;19986;48.190;16.366;2023-03-30T08:38:12;48.97;;;45.72;;
33644;SDS011;19986;48.190;16.366;2023-03-30T08:40:42;49.13;;;46.00;;
33644;SDS011;19986;48.190;16.366;2023-03-30T08:45:44;47.13;;;43.95;;
33644;SDS011;19986;48.190;16.366;2023-03-30T08:48:17;47.63;;;43.78;;
33644;SDS011;19986;48.190;16.366;2023-03-30T08:50:49;43.40;;;40.67;;
33644;SDS011;19986;48.190;16.366;2023-03-30T08:53:23;45.42;;;42.40;;
33644;SDS011;19986;48.190;16.366;2023-03-30T08:55:52;46.53;;;43.08;;
33644;SDS011;19986;48.190;16.366;2023-03-30T09:01:17;46.63;;;43.30;;
33644;SDS011;19986;48.190;16.366;2023-03-30T09:06:42;46.22;;;43.63;;
33644;SDS011;19986;48.190;16.366;2023-03-30T09:09:16;46.83;;;44.10;;
33644;SDS011;19986;48.190;16.366;2023-03-30T09:11:44;47.10;;;44.17;;
33644;SDS011;19986;48.190;16.366;2023-03-30T09:14:15;49.40;;;46.55;;
33644;SDS011;19986;48.190;16.366;2023-03-30T09:16:56;49.97;;;46.88;;
33644;SDS011;19986;48.190;16.366;2023-03-30T09:19:32;47.45;;;44.55;;
33644;SDS011;19986;48.190;16.366;2023-03-30T09:22:09;46.40;;;43.40;;
33644;SDS011;19986;48.190;16.366;2023-03-30T09:24:37;48.85;;;44.65;;
33644;SDS011;19986;48.190;16.366;2023-03-30T09:27:14;48.40;;;44.97;;
33644;SDS011;19986;48.190;16.366;2023-03-30T09:29:47;46.72;;;43.40;;
33644;SDS011;19986;48.190;16.366;2023-03-30T09:35:10;47.95;;;45.22;;
33644;SDS011;19986;48.190;16.366;2023-03-30T09:37:40;45.20;;;42.15;;
33644;SDS011;19986;48.190;16.366;2023-03-30T09:40:16;46.72;;;43.90;;
33644;SDS011;19986;48.190;16.366;2023-03-30T09:45:44;46.42;;;43.20;;
33644;SDS011;19986;48.190;16.366;2023-03-30T09:48:10;47.15;;;44.05;;
33644;SDS011;19986;48.190;16.366;2023-03-30T09:50:37;46.58;;;43.58;;
33644;SDS011;19986;48.190;16.366;2023-03-30T09:53:06;46.88;;;43.72;;
33644;SDS011;19986;48.190;16.366;2023-03-30T09:55:56;49.25;;;45.95;;
33644;SDS011;19986;48.190;16.366;2023-03-30T09:58:29;47.13;;;44.00;;
33644;SDS011;19986;48.190;16.366;2023-03-30T10:01:16;48.83;;;45.33;;
33644;SDS011;19986;48.190;16.366;2023-03-30T10:03:45;45.88;;;43.08;;
33644;SDS011;19986;48.190;16.366;2023-03-30T10:06:32;48.78;;;45.60;;
33644;SDS011;19986;48.190;16.366;2023-03-30T10:09:11;50.00;;;46.67;;
33644;SDS011;19986;48.190;16.366;2023-03-30T10:11:39;46.38;;;43.17;;
33644;SDS011;19986;48.190;16.366;2023-03-30T10:14:10;46.35;;;43.28;;
33644;SDS011;19986;48.190;16.366;2023-03-30T10:17:03;45.78;;;42.42;;
33644;SDS011;19986;48.190;16.366;2023-03-30T10:19:31;45.70;;;42.10;;
33644;SDS011;19986;48.190;16.366;2023-03-30T10:21:58;45.78;;;42.88;;
33644;SDS011;19986;48.190;16.366;2023-03-30T10:24:28;46.15;;;43.28;;
33644;SDS011;19986;48.190;16.366;2023-03-30T10:26:58;48.83;;;45.35;;
33644;SDS011;19986;48.190;16.366;2023-03-30T10:29:34;46.05;;;43.13;;
33644;SDS011;19986;48.190;16.366;2023-03-30T10:34:46;46.08;;;43.03;;
33644;SDS011;19986;48.190;16.366;2023-03-30T10:37:29;47.72;;;44.53;;
33644;SDS011;19986;48.190;16.366;2023-03-30T10:39:58;48.08;;;44.30;;
33644;SDS011;19986;48.190;16.366;2023-03-30T10:42:30;46.97;;;44.00;;
33644;SDS011;19986;48.190;16.366;2023-03-30T10:44:58;50.40;;;47.40;;
33644;SDS011;19986;48.190;16.366;2023-03-30T11:01:50;47.00;;;44.15;;
33644;SDS011;19986;48.190;16.366;2023-03-30T11:04:26;51.80;;;48.20;;
33644;SDS011;19986;48.190;16.366;2023-03-30T11:07:00;43.78;;;40.72;;
33644;SDS011;19986;48.190;16.366;2023-03-30T11:09:31;46.88;;;43.70;;
33644;SDS011;19986;48.190;16.366;2023-03-30T11:12:16;45.35;;;42.63;;
33644;SDS011;19986;48.190;16.366;2023-03-30T11:17:17;49.10;;;45.83;;
33644;SDS011;19986;48.190;16.366;2023-03-30T11:19:52;44.42;;;41.38;;
33644;SDS011;19986;48.190;16.366;2023-03-30T11:22:35;47.00;;;44.03;;
33644;SDS011;19986;48.190;16.366;2023-03-30T11:25:18;46.92;;;44.03;;
33644;SDS011;19986;48.190;16.366;2023-03-30T11:27:51;45.75;;;42.40;;
33644;SDS011;19986;48.190;16.366;2023-03-30T11:30:23;48.20;;;44.85;;
33644;SDS011;19986;48.190;16.366;2023-03-30T11:32:58;44.58;;;41.40;;
33644;SDS011;19986;48.190;16.366;2023-03-30T11:35:47;45.72;;;42.78;;
33644;SDS011;19986;48.190;16.366;2023-03-30T11:40:58;47.47;;;43.97;;
33644;SDS011;19986;48.190;16.366;2023-03-30T11:43:29;48.13;;;45.08;;
33644;SDS011;19986;48.190;16.366;2023-03-30T11:46:05;49.78;;;46.15;;
33644;SDS011;19986;48.190;16.366;2023-03-30T11:51:46;45.65;;;42.63;;
33644;SDS011;19986;48.190;16.366;2023-03-30T12:05:23;46.60;;;43.75;;
33644;SDS011;19986;48.190;16.366;2023-03-30T12:08:05;44.60;;;41.78;;
33644;SDS011;19986;48.190;16.366;2023-03-30T12:10:46;46.88;;;43.17;;
33644;SDS011;19986;48.190;16.366;2023-03-30T12:13:18;46.75;;;43.55;;
33644;SDS011;19986;48.190;16.366;2023-03-30T12:21:14;45.33;;;42.40;;
33644;SDS011;19986;48.190;16.366;2023-03-30T12:23:47;46.95;;;43.47;;
33644;SDS011;19986;48.190;16.366;2023-03-30T12:26:25;45.67;;;42.78;;
33644;SDS011;19986;48.190;16.366;2023-03-30T12:28:57;44.90;;;41.80;;
33644;SDS011;19986;48.190;16.366;2023-03-30T12:34:14;47.50;;;44.55;;
33644;SDS011;19986;48.190;16.366;2023-03-30T12:36:43;44.40;;;41.70;;
33644;SDS011;19986;48.190;16.366;2023-03-30T12:41:47;45.97;;;42.95;;
33644;SDS011;19986;48.190;16.366;2023-03-30T12:44:27;44.78;;;41.92;;
33644;SDS011;19986;48.190;16.366;2023-03-30T13:04:09;46.53;;;43.55;;
33644;SDS011;19986;48.190;16.366;2023-03-30T13:06:58;46.90;;;44.03;;
33644;SDS011;19986;48.190;16.366;2023-03-30T13:09:32;48.63;;;45.47;;
33644;SDS011;19986;48.190;16.366;2023-03-30T13:12:38;49.20;;;45.80;;
33644;SDS011;19986;48.190;16.366;2023-03-30T13:20:36;52.95;;;49.42;;
33644;SDS011;19986;48.190;16.366;2023-03-30T13:23:23;49.50;;;46.28;;
33644;SDS011;19986;48.190;16.366;2023-03-30T13:34:04;47.33;;;44.47;;
33644;SDS011;19986;48.190;16.366;2023-03-30T13:42:38;47.85;;;45.05;;
33644;SDS011;19986;48.190;16.366;2023-03-30T13:47:42;47.90;;;44.80;;
33644;SDS011;19986;48.190;16.366;2023-03-30T13:52:41;50.72;;;47.25;;
33644;SDS011;19986;48.190;16.366;2023-03-30T13:55:15;47.75;;;44.70;;
33644;SDS011;19986;48.190;16.366;2023-03-30T13:57:48;46.65;;;43.55;;
33644;SDS011;19986;48.190;16.366;2023-03-30T14:02:57;49.80;;;46.47;;
33644;SDS011;19986;48.190;16.366;2023-03-30T14:05:25;48.08;;;44.97;;
33644;SDS011;19986;48.190;16.366;2023-03-30T14:07:56;47.88;;;44.85;;
33644;SDS011;19986;48.190;16.366;2023-03-30T14:10:22;48.75;;;45.55;;
33644;SDS011;19986;48.190;16.366;2023-03-30T14:12:51;46.17;;;43.25;;
33644;SDS011;19986;48.190;16.366;2023-03-30T14:15:22;48.75;;;45.63;;
33644;SDS011;19986;48.190;16.366;2023-03-30T14:17:49;46.75;;;43.92;;
33644;SDS011;19986;48.190;16.366;2023-03-30T14:20:28;47.45;;;44.40;;
33644;SDS011;19986;48.190;16.366;2023-03-30T14:23:31;49.35;;;46.22;;
33644;SDS011;19986;48.190;16.366;2023-03-30T14:26:10;50.85;;;47.70;;
33644;SDS011;19986;48.190;16.366;2023-03-30T14:28:37;48.90;;;45.50;;
33644;SDS011;19986;48.190;16.366;2023-03-30T14:31:19;48.42;;;45.17;;
33644;SDS011;19986;48.190;16.366;2023-03-30T14:33:45;50.72;;;47.08;;
33644;SDS011;19986;48.190;16.366;2023-03-30T14:36:13;50.17;;;46.78;;
33644;SDS011;19986;48.190;16.366;2023-03-30T14:38:43;48.17;;;45.00;;
33644;SDS011;19986;48.190;16.366;2023-03-30T14:41:22;48.72;;;45.70;;
33644;SDS011;19986;48.190;16.366;2023-03-30T14:44:01;47.88;;;44.65;;
33644;SDS011;19986;48.190;16.366;2023-03-30T14:46:37;48.38;;;45.47;;
33644;SDS011;19986;48.190;16.366;2023-03-30T14:49:07;48.58;;;45.38;;
33644;SDS011;19986;48.190;16.366;2023-03-30T14:51:44;46.10;;;43.40;;
33644;SDS011;19986;48.190;16.366;2023-03-30T14:54:12;48.53;;;45.25;;
33644;SDS011;19986;48.190;16.366;2023-03-30T14:56:50;49.83;;;46.17;;
33644;SDS011;19986;48.190;16.366;2023-03-30T14:59:21;47.17;;;44.15;;
33644;SDS011;19986;48.190;16.366;2023-03-30T15:01:48;46.17;;;42.95;;
33644;SDS011;19986;48.190;16.366;2023-03-30T15:04:15;46.17;;;43.08;;
33644;SDS011;19986;48.190;16.366;2023-03-30T15:06:44;54.03;;;50.15;;
33644;SDS011;19986;48.190;16.366;2023-03-30T15:09:14;46.70;;;43.58;;
33644;SDS011;19986;48.190;16.366;2023-03-30T15:11:42;61.70;;;56.53;;
33644;SDS011;19986;48.190;16.366;2023-03-30T15:14:15;45.28;;;42.38;;
33644;SDS011;19986;48.190;16.366;2023-03-30T15:16:44;46.42;;;43.50;;
33644;SDS011;19986;48.190;16.366;2023-03-30T15:24:54;46.75;;;43.95;;
33644;SDS011;19986;48.190;16.366;2023-03-30T15:27:23;45.78;;;42.95;;
33644;SDS011;19986;48.190;16.366;2023-03-30T15:29:49;45.28;;;42.65;;
33644;SDS011;19986;48.190;16.366;2023-03-30T15:32:17;46.33;;;43.40;;
33644;SDS011;19986;48.190;16.366;2023-03-30T15:40:26;45.50;;;42.53;;
33644;SDS011;19986;48.190;16.366;2023-03-30T15:45:55;49.53;;;46.15;;
33644;SDS011;19986;48.190;16.366;2023-03-30T15:48:27;49.15;;;45.85;;
33644;SDS011;19986;48.190;16.366;2023-03-30T15:51:04;49.88;;;46.22;;
33644;SDS011;19986;48.190;16.366;2023-03-30T15:59:22;50.75;;;47.08;;
33644;SDS011;19986;48.190;16.366;2023-03-30T16:01:52;51.88;;;48.47;;
33644;SDS011;19986;48.190;16.366;2023-03-30T16:04:21;48.60;;;45.30;;
33644;SDS011;19986;48.190;16.366;2023-03-30T16:06:48;52.25;;;48.78;;
33644;SDS011;19986;48.190;16.366;2023-03-30T16:09:15;50.05;;;46.60;;
33644;SDS011;19986;48.190;16.366;2023-03-30T16:11:41;49.13;;;45.90;;
33644;SDS011;19986;48.190;16.366;2023-03-30T16:14:16;52.40;;;48.90;;
33644;SDS011;19986;48.190;16.366;2023-03-30T16:16:44;53.95;;;50.25;;
33644;SDS011;19986;48.190;16.366;2023-03-30T16:19:14;53.97;;;50.22;;
33644;SDS011;19986;48.190;16.366;2023-03-30T16:21:43;54.72;;;50.88;;
33644;SDS011;19986;48.190;16.366;2023-03-30T16:24:09;54.90;;;50.70;;
33644;SDS011;19986;48.190;16.366;2023-03-30T16:26:35;54.58;;;50.65;;
33644;SDS011;19986;48.190;16.366;2023-03-30T16:29:00;52.97;;;49.33;;
33644;SDS011;19986;48.190;16.366;2023-03-30T16:31:26;49.03;;;45.65;;
33644;SDS011;19986;48.190;16.366;2023-03-30T16:33:52;49.78;;;46.47;;
33644;SDS011;19986;48.190;16.366;2023-03-30T16:39:42;47.90;;;44.55;;
33644;SDS011;19986;48.190;16.366;2023-03-30T16:42:08;47.83;;;44.60;;
33644;SDS011;19986;48.190;16.366;2023-03-30T16:44:34;49.80;;;46.50;;
33644;SDS011;19986;48.190;16.366;2023-03-30T16:47:00;45.78;;;42.65;;
33644;SDS011;19986;48.190;16.366;2023-03-30T16:49:26;46.33;;;43.10;;
33644;SDS011;19986;48.190;16.366;2023-03-30T16:51:52;45.67;;;43.08;;
33644;SDS011;19986;48.190;16.366;2023-03-30T16:54:18;46.00;;;43.20;;
33644;SDS011;19986;48.190;16.366;2023-03-30T16:56:44;44.78;;;41.83;;
33644;SDS011;19986;48.190;16.366;2023-03-30T16:59:31;41.90;;;39.10;;
33644;SDS011;19986;48.190;16.366;2023-03-30T17:01:57;41.45;;;38.95;;
33644;SDS011;19986;48.190;16.366;2023-03-30T17:04:24;42.63;;;40.13;;
33644;SDS011;19986;48.190;16.366;2023-03-30T17:06:51;42.10;;;39.55;;
33644;SDS011;19986;48.190;16.366;2023-03-30T17:09:19;42.83;;;40.63;;
33644;SDS011;19986;48.190;16.366;2023-03-30T17:11:46;44.00;;;41.33;;
33644;SDS011;19986;48.190;16.366;2023-03-30T17:14:12;41.25;;;38.75;;
33644;SDS011;19986;48.190;16.366;2023-03-30T17:16:39;42.20;;;39.88;;
33644;SDS011;19986;48.190;16.366;2023-03-30T17:19:08;41.63;;;39.10;;
33644;SDS011;19986;48.190;16.366;2023-03-30T17:21:36;41.13;;;38.92;;
33644;SDS011;19986;48.190;16.366;2023-03-30T17:24:04;40.40;;;38.22;;
33644;SDS011;19986;48.190;16.366;2023-03-30T17:26:30;42.78;;;40.30;;
33644;SDS011;19986;48.190;16.366;2023-03-30T17:28:59;40.05;;;37.95;;